sensor_id;sensor_type;location;lat;lon;timestamp;pressure;altitude;pressure_sealevel;temperature;humidity
32747;BME280;19118;50.860;13.662;2023-07-16T00:04:26;96354.47;;;21.19;100.00
32747;BME280;19118;50.860;13.662;2023-07-16T00:09:27;96383.25;;;21.19;100.00
32747;BME280;19118;50.860;13.662;2023-07-16T00:14:28;96413.19;;;21.07;100.00
32747;BME280;19118;50.860;13.662;2023-07-16T00:19:28;96449.47;;;21.05;100.00
32747;BME280;19118;50.860;13.662;2023-07-16T00:24:28;96591.69;;;21.11;100.00
32747;BME280;19118;50.860;13.662;2023-07-16T00:29:29;96597.47;;;21.54;100.00
32747;BME280;19118;50.860;13.662;2023-07-16T00:34:32;96623.44;;;21.74;100.00
32747;BME280;19118;50.860;13.662;2023-07-16T00:39:32;96654.59;;;21.90;100.00
32747;BME280;19118;50.860;13.662;2023-07-16T00:44:33;96659.72;;;21.87;100.00
32747;BME280;19118;50.860;13.662;2023-07-16T00:49:33;96666.66;;;21.98;100.00
32747;BME280;19118;50.860;13.662;2023-07-16T00:54:33;96675.28;;;21.95;100.00
32747;BME280;19118;50.860;13.662;2023-07-16T00:59:34;96669.03;;;22.04;100.00
32747;BME280;19118;50.860;13.662;2023-07-16T01:04:34;96656.66;;;22.08;100.00
32747;BME280;19118;50.860;13.662;2023-07-16T01:09:36;96643.97;;;22.14;100.00
32747;BME280;19118;50.860;13.662;2023-07-16T01:14:40;96641.31;;;22.09;100.00
32747;BME280;19118;50.860;13.662;2023-07-16T01:19:40;96634.88;;;21.95;100.00
32747;BME280;19118;50.860;13.662;2023-07-16T01:29:54;96583.13;;;22.03;100.00
32747;BME280;19118;50.860;13.662;2023-07-16T01:34:57;96566.97;;;22.08;100.00
32747;BME280;19118;50.860;13.662;2023-07-16T01:39:59;96579.38;;;22.04;100.00
32747;BME280;19118;50.860;13.662;2023-07-16T01:44:59;96601.81;;;21.89;100.00
32747;BME280;19118;50.860;13.662;2023-07-16T01:49:59;96571.63;;;21.92;100.00
32747;BME280;19118;50.860;13.662;2023-07-16T01:55:01;96586.06;;;21.67;100.00
32747;BME280;19118;50.860;13.662;2023-07-16T02:00:02;96586.06;;;21.67;100.00
32747;BME280;19118;50.860;13.662;2023-07-16T02:05:05;96609.97;;;21.74;100.00
32747;BME280;19118;50.860;13.662;2023-07-16T02:10:06;96607.66;;;21.57;100.00
32747;BME280;19118;50.860;13.662;2023-07-16T02:15:06;96610.47;;;21.27;100.00
32747;BME280;19118;50.860;13.662;2023-07-16T02:20:10;96616.13;;;21.20;100.00
32747;BME280;19118;50.860;13.662;2023-07-16T02:25:12;96628.81;;;21.09;100.00
32747;BME280;19118;50.860;13.662;2023-07-16T02:30:14;96640.91;;;21.07;100.00
32747;BME280;19118;50.860;13.662;2023-07-16T02:35:17;96655.72;;;20.99;100.00
32747;BME280;19118;50.860;13.662;2023-07-16T02:40:17;96659.19;;;21.05;100.00
32747;BME280;19118;50.860;13.662;2023-07-16T02:45:18;96664.34;;;20.81;100.00
32747;BME280;19118;50.860;13.662;2023-07-16T02:50:18;96717.78;;;20.42;100.00
32747;BME280;19118;50.860;13.662;2023-07-16T02:55:19;96758.28;;;20.10;100.00
32747;BME280;19118;50.860;13.662;2023-07-16T03:00:19;96741.00;;;19.90;100.00
32747;BME280;19118;50.860;13.662;2023-07-16T03:05:19;96731.53;;;19.67;100.00
32747;BME280;19118;50.860;13.662;2023-07-16T03:10:21;96749.72;;;19.55;100.00
32747;BME280;19118;50.860;13.662;2023-07-16T03:15:22;96750.22;;;19.52;100.00
32747;BME280;19118;50.860;13.662;2023-07-16T03:20:22;96770.09;;;19.56;100.00
32747;BME280;19118;50.860;13.662;2023-07-16T03:25:22;96741.63;;;19.50;100.00
32747;BME280;19118;50.860;13.662;2023-07-16T03:30:23;96752.00;;;19.36;100.00
32747;BME280;19118;50.860;13.662;2023-07-16T03:35:23;96740.97;;;19.28;100.00
32747;BME280;19118;50.860;13.662;2023-07-16T03:40:26;96749.69;;;19.13;100.00
32747;BME280;19118;50.860;13.662;2023-07-16T03:45:26;96741.72;;;19.23;100.00
32747;BME280;19118;50.860;13.662;2023-07-16T03:50:27;96727.31;;;19.34;100.00
32747;BME280;19118;50.860;13.662;2023-07-16T03:55:30;96722.47;;;19.26;100.00
32747;BME280;19118;50.860;13.662;2023-07-16T04:00:30;96726.50;;;19.34;100.00
32747;BME280;19118;50.860;13.662;2023-07-16T04:05:32;96715.03;;;19.43;100.00
32747;BME280;19118;50.860;13.662;2023-07-16T04:10:32;96712.97;;;19.56;100.00
32747;BME280;19118;50.860;13.662;2023-07-16T04:15:32;96723.13;;;19.48;100.00
32747;BME280;19118;50.860;13.662;2023-07-16T04:20:33;96719.91;;;19.52;100.00
32747;BME280;19118;50.860;13.662;2023-07-16T04:25:33;96705.97;;;19.55;100.00
32747;BME280;19118;50.860;13.662;2023-07-16T04:30:34;96708.19;;;19.63;100.00
32747;BME280;19118;50.860;13.662;2023-07-16T04:35:34;96720.53;;;19.64;100.00
32747;BME280;19118;50.860;13.662;2023-07-16T04:40:35;96700.94;;;19.63;100.00
32747;BME280;19118;50.860;13.662;2023-07-16T04:45:35;96692.94;;;19.73;100.00
32747;BME280;19118;50.860;13.662;2023-07-16T04:50:36;96720.31;;;19.75;100.00
32747;BME280;19118;50.860;13.662;2023-07-16T04:55:37;96727.50;;;19.70;100.00
32747;BME280;19118;50.860;13.662;2023-07-16T05:00:37;96714.72;;;19.82;100.00
32747;BME280;19118;50.860;13.662;2023-07-16T05:05:38;96700.78;;;19.95;100.00
32747;BME280;19118;50.860;13.662;2023-07-16T05:10:38;96675.00;;;20.04;100.00
32747;BME280;19118;50.860;13.662;2023-07-16T05:15:39;96641.19;;;20.03;100.00
32747;BME280;19118;50.860;13.662;2023-07-16T05:20:39;96628.59;;;20.09;100.00
32747;BME280;19118;50.860;13.662;2023-07-16T05:25:45;96632.06;;;19.99;100.00
32747;BME280;19118;50.860;13.662;2023-07-16T05:30:46;96643.91;;;20.34;100.00
32747;BME280;19118;50.860;13.662;2023-07-16T05:35:48;96668.69;;;20.51;100.00
32747;BME280;19118;50.860;13.662;2023-07-16T05:40:50;96676.19;;;20.59;100.00
32747;BME280;19118;50.860;13.662;2023-07-16T05:45:50;96670.00;;;20.84;100.00
32747;BME280;19118;50.860;13.662;2023-07-16T05:50:51;96678.25;;;21.29;100.00
32747;BME280;19118;50.860;13.662;2023-07-16T05:55:51;96695.31;;;21.78;100.00
32747;BME280;19118;50.860;13.662;2023-07-16T06:00:52;96707.13;;;22.37;100.00
32747;BME280;19118;50.860;13.662;2023-07-16T06:05:52;96720.47;;;22.52;100.00
32747;BME280;19118;50.860;13.662;2023-07-16T06:10:53;96719.53;;;23.06;100.00
32747;BME280;19118;50.860;13.662;2023-07-16T06:15:53;96758.94;;;22.63;100.00
32747;BME280;19118;50.860;13.662;2023-07-16T06:20:53;96779.72;;;22.03;100.00
32747;BME280;19118;50.860;13.662;2023-07-16T06:25:55;96791.03;;;22.15;100.00
32747;BME280;19118;50.860;13.662;2023-07-16T06:30:56;96799.63;;;22.22;100.00
32747;BME280;19118;50.860;13.662;2023-07-16T06:35:56;96795.38;;;22.06;100.00
32747;BME280;19118;50.860;13.662;2023-07-16T06:40:57;96788.59;;;22.63;100.00
32747;BME280;19118;50.860;13.662;2023-07-16T06:45:57;96801.19;;;22.28;100.00
32747;BME280;19118;50.860;13.662;2023-07-16T06:50:57;96808.75;;;22.31;100.00
32747;BME280;19118;50.860;13.662;2023-07-16T06:55:58;96806.38;;;22.15;100.00
32747;BME280;19118;50.860;13.662;2023-07-16T07:00:58;96819.19;;;21.63;100.00
32747;BME280;19118;50.860;13.662;2023-07-16T07:06:02;96817.03;;;21.55;100.00
32747;BME280;19118;50.860;13.662;2023-07-16T07:11:04;96819.91;;;22.59;100.00
32747;BME280;19118;50.860;13.662;2023-07-16T07:16:04;96837.63;;;22.65;100.00
32747;BME280;19118;50.860;13.662;2023-07-16T07:21:05;96853.66;;;22.95;100.00
32747;BME280;19118;50.860;13.662;2023-07-16T07:26:05;96847.69;;;23.04;100.00
32747;BME280;19118;50.860;13.662;2023-07-16T07:31:06;96845.78;;;23.04;100.00
32747;BME280;19118;50.860;13.662;2023-07-16T07:36:06;96853.44;;;23.26;100.00
32747;BME280;19118;50.860;13.662;2023-07-16T07:41:07;96859.31;;;23.96;99.47
32747;BME280;19118;50.860;13.662;2023-07-16T07:46:07;96873.75;;;24.34;92.43
32747;BME280;19118;50.860;13.662;2023-07-16T07:51:07;96888.53;;;24.85;85.89
32747;BME280;19118;50.860;13.662;2023-07-16T07:56:08;96889.50;;;25.13;79.61
32747;BME280;19118;50.860;13.662;2023-07-16T08:01:08;96876.22;;;25.81;75.60
32747;BME280;19118;50.860;13.662;2023-07-16T08:06:09;96885.78;;;25.28;76.44
32747;BME280;19118;50.860;13.662;2023-07-16T08:11:12;96867.88;;;25.78;76.63
32747;BME280;19118;50.860;13.662;2023-07-16T08:16:12;96873.06;;;26.21;76.55
32747;BME280;19118;50.860;13.662;2023-07-16T08:21:12;96895.66;;;26.30;72.22
32747;BME280;19118;50.860;13.662;2023-07-16T08:26:19;96893.47;;;27.45;68.82
32747;BME280;19118;50.860;13.662;2023-07-16T08:31:20;96913.22;;;26.87;66.94
32747;BME280;19118;50.860;13.662;2023-07-16T08:36:21;96886.06;;;27.37;63.68
32747;BME280;19118;50.860;13.662;2023-07-16T08:41:21;96903.47;;;27.36;60.55
32747;BME280;19118;50.860;13.662;2023-07-16T08:46:22;96918.13;;;27.71;58.92
32747;BME280;19118;50.860;13.662;2023-07-16T08:51:23;96904.22;;;27.73;58.54
32747;BME280;19118;50.860;13.662;2023-07-16T08:56:23;96914.56;;;27.48;59.52
32747;BME280;19118;50.860;13.662;2023-07-16T09:01:24;96917.41;;;27.21;60.07
32747;BME280;19118;50.860;13.662;2023-07-16T09:06:25;96931.34;;;27.28;59.93
32747;BME280;19118;50.860;13.662;2023-07-16T09:11:25;96935.53;;;27.70;56.59
32747;BME280;19118;50.860;13.662;2023-07-16T09:16:26;96935.00;;;27.23;56.68
32747;BME280;19118;50.860;13.662;2023-07-16T09:21:26;96943.06;;;27.15;59.05
32747;BME280;19118;50.860;13.662;2023-07-16T09:26:30;96944.78;;;26.97;56.99
32747;BME280;19118;50.860;13.662;2023-07-16T09:31:30;96954.44;;;27.39;57.63
32747;BME280;19118;50.860;13.662;2023-07-16T09:36:30;96938.97;;;26.76;58.96
32747;BME280;19118;50.860;13.662;2023-07-16T09:41:31;96940.59;;;27.27;56.62
32747;BME280;19118;50.860;13.662;2023-07-16T09:46:31;96940.66;;;26.99;56.28
32747;BME280;19118;50.860;13.662;2023-07-16T09:51:34;96951.38;;;27.32;56.02
32747;BME280;19118;50.860;13.662;2023-07-16T09:56:39;96945.63;;;27.34;54.24
32747;BME280;19118;50.860;13.662;2023-07-16T10:01:40;96963.84;;;27.55;54.05
32747;BME280;19118;50.860;13.662;2023-07-16T10:07:00;96946.81;;;27.41;53.71
32747;BME280;19118;50.860;13.662;2023-07-16T10:17:30;96955.50;;;27.66;49.64
32747;BME280;19118;50.860;13.662;2023-07-16T10:22:41;96959.19;;;28.46;48.98
32747;BME280;19118;50.860;13.662;2023-07-16T10:27:42;96958.94;;;27.80;50.83
32747;BME280;19118;50.860;13.662;2023-07-16T10:32:43;96963.13;;;27.86;49.93
32747;BME280;19118;50.860;13.662;2023-07-16T10:37:43;96958.44;;;27.55;50.77
32747;BME280;19118;50.860;13.662;2023-07-16T10:42:44;96972.34;;;27.40;50.78
32747;BME280;19118;50.860;13.662;2023-07-16T10:47:54;96970.88;;;27.70;49.90
32747;BME280;19118;50.860;13.662;2023-07-16T10:52:56;96964.81;;;27.37;50.12
32747;BME280;19118;50.860;13.662;2023-07-16T10:57:57;96963.41;;;27.76;51.44
32747;BME280;19118;50.860;13.662;2023-07-16T11:02:57;96962.25;;;28.22;48.96
32747;BME280;19118;50.860;13.662;2023-07-16T11:07:58;96966.97;;;27.85;51.33
32747;BME280;19118;50.860;13.662;2023-07-16T11:12:58;96971.31;;;27.50;50.50
32747;BME280;19118;50.860;13.662;2023-07-16T11:18:02;96975.19;;;27.35;49.50
32747;BME280;19118;50.860;13.662;2023-07-16T11:23:04;96963.91;;;27.78;50.50
32747;BME280;19118;50.860;13.662;2023-07-16T11:28:04;96961.53;;;27.26;51.65
32747;BME280;19118;50.860;13.662;2023-07-16T11:33:10;96956.97;;;27.72;51.58
32747;BME280;19118;50.860;13.662;2023-07-16T11:38:10;96955.53;;;28.50;51.27
32747;BME280;19118;50.860;13.662;2023-07-16T11:43:11;96943.00;;;28.18;47.17
32747;BME280;19118;50.860;13.662;2023-07-16T11:48:12;96931.88;;;27.97;49.37
32747;BME280;19118;50.860;13.662;2023-07-16T11:53:12;96935.66;;;28.19;50.69
32747;BME280;19118;50.860;13.662;2023-07-16T11:58:12;96919.91;;;28.78;49.08
32747;BME280;19118;50.860;13.662;2023-07-16T12:03:13;96927.06;;;28.56;48.54
32747;BME280;19118;50.860;13.662;2023-07-16T12:08:13;96934.25;;;27.68;48.66
32747;BME280;19118;50.860;13.662;2023-07-16T12:13:14;96933.03;;;28.05;48.57
32747;BME280;19118;50.860;13.662;2023-07-16T12:18:15;96935.31;;;28.11;49.42
32747;BME280;19118;50.860;13.662;2023-07-16T12:23:15;96930.09;;;28.24;48.92
32747;BME280;19118;50.860;13.662;2023-07-16T12:28:16;96917.19;;;28.29;47.74
32747;BME280;19118;50.860;13.662;2023-07-16T12:33:16;96917.72;;;28.97;46.22
32747;BME280;19118;50.860;13.662;2023-07-16T12:38:16;96897.66;;;28.27;46.15
32747;BME280;19118;50.860;13.662;2023-07-16T12:43:17;96911.78;;;28.38;45.32
32747;BME280;19118;50.860;13.662;2023-07-16T12:48:17;96917.25;;;28.16;46.25
32747;BME280;19118;50.860;13.662;2023-07-16T12:53:17;96907.91;;;28.79;45.74
32747;BME280;19118;50.860;13.662;2023-07-16T12:58:18;96906.53;;;28.19;46.12
32747;BME280;19118;50.860;13.662;2023-07-16T13:03:18;96900.41;;;28.05;46.82
32747;BME280;19118;50.860;13.662;2023-07-16T13:08:19;96903.00;;;28.89;48.01
32747;BME280;19118;50.860;13.662;2023-07-16T13:13:19;96916.63;;;29.15;48.17
32747;BME280;19118;50.860;13.662;2023-07-16T13:18:20;96902.25;;;28.58;44.54
32747;BME280;19118;50.860;13.662;2023-07-16T13:23:20;96907.50;;;29.28;45.27
32747;BME280;19118;50.860;13.662;2023-07-16T13:28:20;96904.59;;;28.42;44.42
32747;BME280;19118;50.860;13.662;2023-07-16T13:33:21;96916.34;;;29.34;42.69
32747;BME280;19118;50.860;13.662;2023-07-16T13:38:23;96902.41;;;28.61;42.31
32747;BME280;19118;50.860;13.662;2023-07-16T13:43:23;96915.38;;;28.56;42.95
32747;BME280;19118;50.860;13.662;2023-07-16T13:48:23;96924.31;;;29.82;42.40
32747;BME280;19118;50.860;13.662;2023-07-16T13:53:24;96912.25;;;30.09;40.70
32747;BME280;19118;50.860;13.662;2023-07-16T13:58:24;96910.44;;;30.22;40.59
32747;BME280;19118;50.860;13.662;2023-07-16T14:03:24;96909.91;;;29.73;41.18
32747;BME280;19118;50.860;13.662;2023-07-16T14:08:25;96917.34;;;30.20;41.11
32747;BME280;19118;50.860;13.662;2023-07-16T14:13:26;96899.69;;;30.55;40.28
32747;BME280;19118;50.860;13.662;2023-07-16T14:18:26;96901.81;;;30.03;42.77
32747;BME280;19118;50.860;13.662;2023-07-16T14:23:26;96902.13;;;30.10;41.18
32747;BME280;19118;50.860;13.662;2023-07-16T14:28:28;96903.19;;;29.62;42.61
32747;BME280;19118;50.860;13.662;2023-07-16T14:33:29;96894.50;;;29.08;41.68
32747;BME280;19118;50.860;13.662;2023-07-16T14:38:30;96901.91;;;29.51;41.96
32747;BME280;19118;50.860;13.662;2023-07-16T14:43:30;96904.16;;;29.49;42.33
32747;BME280;19118;50.860;13.662;2023-07-16T14:48:30;96894.47;;;29.95;41.06
32747;BME280;19118;50.860;13.662;2023-07-16T14:53:31;96890.03;;;29.29;42.41
32747;BME280;19118;50.860;13.662;2023-07-16T14:58:32;96886.50;;;29.38;43.32
32747;BME280;19118;50.860;13.662;2023-07-16T15:03:35;96886.28;;;29.86;42.49
32747;BME280;19118;50.860;13.662;2023-07-16T15:08:40;96883.97;;;29.59;42.84
32747;BME280;19118;50.860;13.662;2023-07-16T15:13:41;96891.78;;;29.08;42.71
32747;BME280;19118;50.860;13.662;2023-07-16T15:18:43;96889.06;;;29.08;44.18
32747;BME280;19118;50.860;13.662;2023-07-16T15:23:45;96891.34;;;29.58;42.42
32747;BME280;19118;50.860;13.662;2023-07-16T15:28:45;96875.59;;;29.55;42.54
32747;BME280;19118;50.860;13.662;2023-07-16T15:33:46;96882.50;;;29.09;43.23
32747;BME280;19118;50.860;13.662;2023-07-16T15:38:46;96883.13;;;29.06;43.83
32747;BME280;19118;50.860;13.662;2023-07-16T15:43:47;96885.53;;;28.90;43.89
32747;BME280;19118;50.860;13.662;2023-07-16T15:48:49;96877.84;;;29.18;42.84
32747;BME280;19118;50.860;13.662;2023-07-16T15:53:52;96881.22;;;29.15;43.37
32747;BME280;19118;50.860;13.662;2023-07-16T15:58:53;96889.06;;;28.91;43.79
32747;BME280;19118;50.860;13.662;2023-07-16T16:03:53;96889.38;;;28.98;43.48
32747;BME280;19118;50.860;13.662;2023-07-16T16:08:54;96880.94;;;28.51;44.12
32747;BME280;19118;50.860;13.662;2023-07-16T16:13:54;96892.09;;;28.89;44.48
32747;BME280;19118;50.860;13.662;2023-07-16T16:18:54;96873.66;;;30.58;41.96
32747;BME280;19118;50.860;13.662;2023-07-16T16:23:55;96879.63;;;32.67;38.22
32747;BME280;19118;50.860;13.662;2023-07-16T16:28:55;96874.94;;;32.92;37.04
32747;BME280;19118;50.860;13.662;2023-07-16T16:33:56;96880.66;;;34.58;35.41
32747;BME280;19118;50.860;13.662;2023-07-16T16:38:56;96879.91;;;34.77;34.67
32747;BME280;19118;50.860;13.662;2023-07-16T16:43:56;96882.38;;;34.82;33.90
32747;BME280;19118;50.860;13.662;2023-07-16T16:48:57;96885.50;;;34.65;35.03
32747;BME280;19118;50.860;13.662;2023-07-16T16:53:57;96893.19;;;35.26;34.69
32747;BME280;19118;50.860;13.662;2023-07-16T16:58:58;96890.75;;;35.40;33.23
32747;BME280;19118;50.860;13.662;2023-07-16T17:03:58;96896.84;;;37.06;32.22
32747;BME280;19118;50.860;13.662;2023-07-16T17:08:58;96890.56;;;34.15;34.89
32747;BME280;19118;50.860;13.662;2023-07-16T17:13:59;96895.94;;;34.75;33.99
32747;BME280;19118;50.860;13.662;2023-07-16T17:18:59;96902.59;;;34.74;34.45
32747;BME280;19118;50.860;13.662;2023-07-16T17:24:00;96905.16;;;34.20;35.32
32747;BME280;19118;50.860;13.662;2023-07-16T17:29:02;96905.50;;;34.46;34.41
32747;BME280;19118;50.860;13.662;2023-07-16T17:34:03;96904.50;;;35.40;33.68
32747;BME280;19118;50.860;13.662;2023-07-16T17:39:04;96904.75;;;34.65;34.24
32747;BME280;19118;50.860;13.662;2023-07-16T17:44:04;96921.69;;;32.38;36.78
32747;BME280;19118;50.860;13.662;2023-07-16T17:49:05;96916.72;;;30.90;39.34
32747;BME280;19118;50.860;13.662;2023-07-16T17:54:05;96927.31;;;29.98;40.20
32747;BME280;19118;50.860;13.662;2023-07-16T17:59:05;96927.03;;;29.22;42.16
32747;BME280;19118;50.860;13.662;2023-07-16T18:04:07;96932.75;;;28.37;44.09
32747;BME280;19118;50.860;13.662;2023-07-16T18:09:07;96946.03;;;27.85;45.42
32747;BME280;19118;50.860;13.662;2023-07-16T18:14:08;96945.81;;;27.37;46.54
32747;BME280;19118;50.860;13.662;2023-07-16T18:19:11;96936.91;;;27.23;47.55
32747;BME280;19118;50.860;13.662;2023-07-16T18:24:11;96936.97;;;27.32;47.06
32747;BME280;19118;50.860;13.662;2023-07-16T18:29:11;96945.19;;;26.90;48.96
32747;BME280;19118;50.860;13.662;2023-07-16T18:34:12;96953.91;;;26.19;49.83
32747;BME280;19118;50.860;13.662;2023-07-16T18:39:12;96956.91;;;26.17;49.38
32747;BME280;19118;50.860;13.662;2023-07-16T18:44:13;96964.31;;;26.11;50.43
32747;BME280;19118;50.860;13.662;2023-07-16T18:49:13;96960.22;;;25.63;51.85
32747;BME280;19118;50.860;13.662;2023-07-16T18:54:13;96970.81;;;25.27;53.22
32747;BME280;19118;50.860;13.662;2023-07-16T18:59:14;96973.09;;;24.72;56.84
32747;BME280;19118;50.860;13.662;2023-07-16T19:04:14;96974.44;;;24.50;59.18
32747;BME280;19118;50.860;13.662;2023-07-16T19:09:14;96982.25;;;23.94;62.61
32747;BME280;19118;50.860;13.662;2023-07-16T19:14:15;96990.81;;;23.67;66.17
32747;BME280;19118;50.860;13.662;2023-07-16T19:19:15;96995.88;;;23.34;70.27
32747;BME280;19118;50.860;13.662;2023-07-16T19:24:16;96991.78;;;22.92;74.05
32747;BME280;19118;50.860;13.662;2023-07-16T19:29:16;96981.13;;;22.47;78.65
32747;BME280;19118;50.860;13.662;2023-07-16T19:34:16;96991.41;;;22.19;81.89
32747;BME280;19118;50.860;13.662;2023-07-16T19:39:18;96998.41;;;21.95;85.45
32747;BME280;19118;50.860;13.662;2023-07-16T19:44:19;96996.25;;;21.46;92.43
32747;BME280;19118;50.860;13.662;2023-07-16T19:49:19;96992.06;;;21.03;98.66
32747;BME280;19118;50.860;13.662;2023-07-16T19:54:19;97003.31;;;20.89;100.00
32747;BME280;19118;50.860;13.662;2023-07-16T19:59:20;97007.34;;;20.92;100.00
32747;BME280;19118;50.860;13.662;2023-07-16T20:04:20;97000.69;;;20.47;100.00
32747;BME280;19118;50.860;13.662;2023-07-16T20:09:21;97005.44;;;20.35;100.00
32747;BME280;19118;50.860;13.662;2023-07-16T20:14:25;96996.69;;;20.13;100.00
32747;BME280;19118;50.860;13.662;2023-07-16T20:19:25;97005.00;;;19.74;100.00
32747;BME280;19118;50.860;13.662;2023-07-16T20:24:26;97004.28;;;19.84;100.00
32747;BME280;19118;50.860;13.662;2023-07-16T20:29:26;97011.91;;;19.65;100.00
32747;BME280;19118;50.860;13.662;2023-07-16T20:34:27;97011.53;;;19.56;100.00
32747;BME280;19118;50.860;13.662;2023-07-16T20:39:28;97017.34;;;19.48;100.00
32747;BME280;19118;50.860;13.662;2023-07-16T20:44:28;97010.47;;;19.30;100.00
32747;BME280;19118;50.860;13.662;2023-07-16T20:49:29;97006.81;;;19.41;100.00
32747;BME280;19118;50.860;13.662;2023-07-16T20:54:29;97001.97;;;19.38;100.00
32747;BME280;19118;50.860;13.662;2023-07-16T20:59:30;97003.88;;;19.43;100.00
32747;BME280;19118;50.860;13.662;2023-07-16T21:04:30;97004.56;;;19.55;100.00
32747;BME280;19118;50.860;13.662;2023-07-16T21:09:30;97009.50;;;19.41;100.00
32747;BME280;19118;50.860;13.662;2023-07-16T21:14:31;96993.75;;;19.23;100.00
32747;BME280;19118;50.860;13.662;2023-07-16T21:19:31;97004.19;;;19.19;100.00
32747;BME280;19118;50.860;13.662;2023-07-16T21:24:31;96997.91;;;19.09;100.00
32747;BME280;19118;50.860;13.662;2023-07-16T21:29:32;97001.94;;;19.11;100.00
32747;BME280;19118;50.860;13.662;2023-07-16T21:34:32;96996.16;;;18.98;100.00
32747;BME280;19118;50.860;13.662;2023-07-16T21:39:32;97007.78;;;18.81;100.00
32747;BME280;19118;50.860;13.662;2023-07-16T21:44:33;97008.63;;;18.65;100.00
32747;BME280;19118;50.860;13.662;2023-07-16T21:49:34;97019.34;;;18.65;100.00
32747;BME280;19118;50.860;13.662;2023-07-16T21:54:34;97013.81;;;18.55;100.00
32747;BME280;19118;50.860;13.662;2023-07-16T21:59:35;97023.47;;;18.56;100.00
32747;BME280;19118;50.860;13.662;2023-07-16T22:04:35;97027.00;;;18.40;100.00
32747;BME280;19118;50.860;13.662;2023-07-16T22:09:35;97020.44;;;18.30;100.00
32747;BME280;19118;50.860;13.662;2023-07-16T22:14:36;97027.97;;;18.33;100.00
32747;BME280;19118;50.860;13.662;2023-07-16T22:19:36;97038.84;;;18.44;100.00
32747;BME280;19118;50.860;13.662;2023-07-16T22:24:37;97055.69;;;18.61;100.00
32747;BME280;19118;50.860;13.662;2023-07-16T22:29:37;97062.69;;;18.62;100.00
32747;BME280;19118;50.860;13.662;2023-07-16T22:34:38;97051.00;;;18.68;100.00
32747;BME280;19118;50.860;13.662;2023-07-16T22:39:39;97062.75;;;18.67;100.00
32747;BME280;19118;50.860;13.662;2023-07-16T22:44:39;97069.06;;;18.78;100.00
32747;BME280;19118;50.860;13.662;2023-07-16T22:49:39;97071.84;;;18.66;100.00
32747;BME280;19118;50.860;13.662;2023-07-16T22:54:41;97073.75;;;18.49;100.00
32747;BME280;19118;50.860;13.662;2023-07-16T22:59:42;97066.53;;;18.32;100.00
32747;BME280;19118;50.860;13.662;2023-07-16T23:04:42;97071.31;;;18.30;100.00
32747;BME280;19118;50.860;13.662;2023-07-16T23:09:42;97066.97;;;18.24;100.00
32747;BME280;19118;50.860;13.662;2023-07-16T23:14:43;97069.72;;;18.13;100.00
32747;BME280;19118;50.860;13.662;2023-07-16T23:19:43;97074.09;;;18.02;100.00
32747;BME280;19118;50.860;13.662;2023-07-16T23:24:43;97071.88;;;17.99;100.00
32747;BME280;19118;50.860;13.662;2023-07-16T23:29:44;97060.53;;;17.92;100.00
32747;BME280;19118;50.860;13.662;2023-07-16T23:34:44;97063.13;;;17.87;100.00
32747;BME280;19118;50.860;13.662;2023-07-16T23:39:44;97072.78;;;17.88;100.00
32747;BME280;19118;50.860;13.662;2023-07-16T23:44:45;97075.38;;;17.83;100.00
32747;BME280;19118;50.860;13.662;2023-07-16T23:49:46;97061.44;;;17.81;100.00
32747;BME280;19118;50.860;13.662;2023-07-16T23:54:46;97061.38;;;17.64;100.00
32747;BME280;19118;50.860;13.662;2023-07-16T23:59:46;97045.00;;;17.60;100.00
